Staverton, United Kingdom

7:46 PM BST on August 22, 2014 (GMT +0100)
Cheltenham Staverton Bamfurlong | Change Station
CLOSE
Current Station
Personal Weather Station
Location: Staverton, Cheltenham
Elevation: 95 ft
Nearby Weather Stations

Elev 95 ft 51.90 °N, 2.16 °W | Updated 11 minutes ago

Overcast
Overcast
59.1 °F
Feels Like 59.1 °F
N
6.0
Wind Variable Wind from North

Today
High -- | Low -- °F
--% Chance of Precip.
Yesterday
High -- | Low -- °F
Precip. -- in
6:04 AM 8:17 PM
Waning Crescent, 7% visible
Pressure 29.90 in
Visibility 6.2 miles
Clouds Few 4600 ft
Mostly Cloudy 6000 ft
Overcast 7500 ft
Dew Point 44 °F
Humidity 57%
Rainfall 0.00 in
Snow Depth Not available.
UV 0.0 out of 12
Pollen Not available.
Air Quality Not available.
Flu Activity Not available.
SPECI EGVA 221833Z AUTO 35007KT 9999 FEW046 BKN060 OVC075 16/08 A2990 RMK AO2

More Conditions Fewer Conditions

Pressure 29.90 in
Visibility 6.2 miles
Clouds Few 4600 ft
Mostly Cloudy 6000 ft
Overcast 7500 ft
Dew Point 44 °F
Humidity 57%
Rainfall 0.00 in
Snow Depth Not available.
UV 0.0 out of 12
Pollen Not available.
Air Quality Not available.
Flu Activity Not available.
SPECI EGVA 221833Z AUTO 35007KT 9999 FEW046 BKN060 OVC075 16/08 A2990 RMK AO2

More Conditions Fewer Conditions

10-Day Weather Forecast

Almanac

Astronomy

Aug. 22, 2014 Rise Set
Actual Time 6:04 AM BST 8:17 PM BST
Civil Twilight 5:27 AM BST 8:54 PM BST
Nautical Twilight 4:40 AM BST 9:40 PM BST
Astronomical Twilight 3:47 AM BST 10:33 PM BST
Moon 3:03 AM BST 6:24 PM BST
Length of Visible Light 15h 27m
Length of Day
14h 13m
Tomorrow will be 3m 46s shorter.
Waning Crescent, 7% of the Moon is Illuminated
Today
Waning Crescent
Aug 25
New
Sep 2
First Quarter
Sep 8
Full
Sep 15
Last Quarter

Today's Extremes

Country Highs Country Lows

Community

WunderPhotos

Upload Photos

1,746,216 photos uploaded!

Nearby

Snow Depth

Not available.

Earthquake Activity

City Distance Mag. Time & Date
No recent earthquake activity has been reported nearby.
Minimum magnitude displayed is 2.5.

Coastal Water Temperatures

Place Temperature
No Stations Reporting

Nearby Weather Stations